createdAt,value
2023-09-08T00:00:44.460Z,101841.44
2023-09-08T00:03:12.246Z,101831.00
2023-09-08T00:05:40.045Z,101834.72
2023-09-08T00:08:07.847Z,101829.09
2023-09-08T00:10:35.785Z,101833.50
2023-09-08T00:13:03.528Z,101815.78
2023-09-08T00:15:31.366Z,101817.53
2023-09-08T00:17:59.025Z,101821.00
2023-09-08T00:20:26.724Z,101811.13
2023-09-08T00:22:54.468Z,101819.38
2023-09-08T00:25:22.204Z,101814.94
2023-09-08T00:27:49.911Z,101808.91
2023-09-08T00:30:17.726Z,101803.03
2023-09-08T00:32:45.622Z,101801.19
2023-09-08T00:35:14.380Z,101804.16
2023-09-08T00:37:42.212Z,101804.44
2023-09-08T00:40:11.038Z,101798.59
2023-09-08T00:42:38.818Z,101801.38
2023-09-08T00:45:07.230Z,101809.94
2023-09-08T00:47:36.109Z,101798.66
2023-09-08T00:50:08.103Z,101809.69
2023-09-08T00:52:35.971Z,101804.72
2023-09-08T00:55:04.362Z,101800.00
2023-09-08T00:57:32.727Z,101800.97
2023-09-08T01:00:01.344Z,101811.59
2023-09-08T01:02:29.573Z,101804.75
2023-09-08T01:04:57.482Z,101804.91
2023-09-08T01:07:25.295Z,101798.88
2023-09-08T01:09:53.392Z,101806.41
2023-09-08T01:12:21.662Z,101804.91
2023-09-08T01:14:49.447Z,101801.91
2023-09-08T01:17:18.417Z,101799.31
2023-09-08T01:19:47.450Z,101790.84
2023-09-08T01:22:31.288Z,101805.34
2023-09-08T01:25:17.655Z,101773.94
2023-09-08T01:27:58.538Z,101801.94
2023-09-08T01:30:30.042Z,101804.22
2023-09-08T01:32:57.972Z,101797.03
2023-09-08T01:35:26.303Z,101799.03
2023-09-08T01:37:54.174Z,101792.66
2023-09-08T01:40:22.817Z,101794.91
2023-09-08T01:42:51.499Z,101797.31
2023-09-08T01:45:19.409Z,101798.47
2023-09-08T01:47:47.212Z,101792.91
2023-09-08T01:50:16.315Z,101791.13
2023-09-08T01:52:44.066Z,101789.31
2023-09-08T01:55:13.188Z,101785.91
2023-09-08T01:57:40.892Z,101784.31
2023-09-08T02:00:09.566Z,101790.53
2023-09-08T02:02:43.407Z,101781.31
2023-09-08T02:05:11.307Z,101792.03
2023-09-08T02:07:39.087Z,101781.72
2023-09-08T02:10:07.578Z,101778.88
2023-09-08T02:12:35.621Z,101777.09
2023-09-08T02:15:05.088Z,101773.53
2023-09-08T02:17:33.166Z,101769.75
2023-09-08T02:20:01.007Z,101768.59
2023-09-08T02:22:28.720Z,101768.09
2023-09-08T02:24:57.830Z,101763.72
2023-09-08T02:27:25.598Z,101764.59
2023-09-08T02:29:53.425Z,101765.59
2023-09-08T02:32:21.167Z,101765.91
2023-09-08T02:34:49.851Z,101750.50
2023-09-08T02:37:20.125Z,101764.06
2023-09-08T02:39:47.949Z,101752.34
2023-09-08T02:42:15.779Z,101758.53
2023-09-08T02:44:44.439Z,101761.03
2023-09-08T02:47:12.139Z,101751.13
2023-09-08T02:49:41.355Z,101756.69
2023-09-08T02:52:09.117Z,101756.16
2023-09-08T02:54:36.866Z,101749.75
2023-09-08T02:57:05.093Z,101749.22
2023-09-08T02:59:33.020Z,101745.13
2023-09-08T03:02:01.234Z,101742.59
2023-09-08T03:04:29.195Z,101747.50
2023-09-08T03:06:57.539Z,101746.78
2023-09-08T03:09:25.378Z,101745.06
2023-09-08T03:11:53.196Z,101749.09
2023-09-08T03:14:21.275Z,101747.94
2023-09-08T03:16:49.153Z,101749.06
2023-09-08T03:19:16.943Z,101742.38
2023-09-08T03:21:46.055Z,101744.25
2023-09-08T03:24:13.781Z,101741.03
2023-09-08T03:26:42.524Z,101747.81
2023-09-08T03:29:10.359Z,101753.91
2023-09-08T03:31:38.341Z,101754.03
2023-09-08T03:34:06.772Z,101747.22
2023-09-08T03:36:38.015Z,101754.25
2023-09-08T03:39:05.907Z,101750.44
2023-09-08T03:41:33.620Z,101753.44
2023-09-08T03:44:01.792Z,101754.34
2023-09-08T03:46:29.623Z,101755.09
2023-09-08T03:49:01.757Z,101758.00
2023-09-08T03:51:29.866Z,101749.41
2023-09-08T03:53:58.221Z,101750.31
2023-09-08T03:56:26.194Z,101747.50
2023-09-08T03:58:54.357Z,101751.34
2023-09-08T04:01:22.142Z,101753.31
2023-09-08T04:03:49.970Z,101751.59
2023-09-08T04:06:17.862Z,101758.28
2023-09-08T04:08:45.736Z,101744.97
2023-09-08T04:11:14.785Z,101762.38
2023-09-08T04:13:44.776Z,101746.09
2023-09-08T04:16:17.494Z,101754.75
2023-09-08T04:18:46.206Z,101753.75
2023-09-08T04:21:14.779Z,101760.38
2023-09-08T04:23:42.625Z,101749.50
2023-09-08T04:26:10.383Z,101750.63
2023-09-08T04:28:38.327Z,101752.75
2023-09-08T04:31:06.219Z,101746.53
2023-09-08T04:33:34.442Z,101754.75
2023-09-08T04:36:02.511Z,101761.81
2023-09-08T04:38:30.816Z,101758.69
2023-09-08T04:40:58.594Z,101755.88
2023-09-08T04:43:26.984Z,101738.31
2023-09-08T04:45:54.775Z,101759.84
2023-09-08T04:48:23.001Z,101754.06
2023-09-08T04:50:52.457Z,101747.38
2023-09-08T04:53:20.456Z,101749.38
2023-09-08T04:55:50.281Z,101749.91
2023-09-08T04:58:19.741Z,101751.06
2023-09-08T05:00:48.551Z,101752.34
2023-09-08T05:03:16.484Z,101744.25
2023-09-08T05:05:45.614Z,101740.00
2023-09-08T05:08:14.331Z,101755.28
2023-09-08T05:10:42.111Z,101747.66
2023-09-08T05:13:24.119Z,101743.13
2023-09-08T05:16:01.444Z,101731.63
2023-09-08T05:18:32.570Z,101756.97
2023-09-08T05:21:01.932Z,101744.25
2023-09-08T05:23:29.773Z,101751.72
2023-09-08T05:25:57.603Z,101749.28
2023-09-08T05:28:25.496Z,101753.25
2023-09-08T05:30:56.391Z,101760.16
2023-09-08T05:33:24.268Z,101751.28
2023-09-08T05:35:52.390Z,101752.88
2023-09-08T05:38:20.193Z,101753.34
2023-09-08T05:40:47.899Z,101760.03
2023-09-08T05:43:16.322Z,101767.59
2023-09-08T05:45:44.337Z,101760.47
2023-09-08T05:48:15.134Z,101767.13
2023-09-08T05:50:44.271Z,101763.91
2023-09-08T05:53:12.729Z,101765.44
2023-09-08T05:55:40.911Z,101772.47
2023-09-08T05:58:08.654Z,101768.16
2023-09-08T06:00:36.637Z,101761.25
2023-09-08T06:03:05.526Z,101757.00
2023-09-08T06:05:33.830Z,101767.34
2023-09-08T06:08:07.394Z,101764.91
2023-09-08T06:10:39.852Z,101770.44
2023-09-08T06:13:09.038Z,101761.00
2023-09-08T06:15:38.255Z,101765.34
2023-09-08T06:18:06.755Z,101759.63
2023-09-08T06:20:35.032Z,101772.81
2023-09-08T06:23:03.743Z,101765.72
2023-09-08T06:25:31.823Z,101763.69
2023-09-08T06:28:00.034Z,101762.03
2023-09-08T06:30:28.638Z,101766.16
2023-09-08T06:32:56.688Z,101767.69
2023-09-08T06:35:27.583Z,101765.91
2023-09-08T06:37:55.806Z,101767.44
2023-09-08T06:40:23.665Z,101762.91
2023-09-08T06:42:51.469Z,101757.75
2023-09-08T06:45:28.438Z,101760.31
2023-09-08T06:47:56.667Z,101756.72
2023-09-08T06:50:25.822Z,101755.91
2023-09-08T06:52:54.118Z,101755.88
2023-09-08T06:55:21.903Z,101762.69
2023-09-08T06:57:50.275Z,101755.44
2023-09-08T07:00:21.658Z,101767.25
2023-09-08T07:02:50.762Z,101760.81
2023-09-08T07:05:20.111Z,101762.06
2023-09-08T07:07:50.849Z,101763.72
2023-09-08T07:10:18.734Z,101765.75
2023-09-08T07:12:46.867Z,101766.34
2023-09-08T07:15:15.113Z,101767.09
2023-09-08T07:17:43.587Z,101755.84
2023-09-08T07:20:11.987Z,101765.66
2023-09-08T07:22:40.625Z,101756.59
2023-09-08T07:25:10.738Z,101762.91
2023-09-08T07:27:38.739Z,101763.13
2023-09-08T07:30:07.886Z,101762.91
2023-09-08T07:32:36.331Z,101770.41
2023-09-08T07:35:04.527Z,101765.09
2023-09-08T07:37:32.277Z,101762.56
2023-09-08T07:39:59.977Z,101767.63
2023-09-08T07:42:28.324Z,101770.81
2023-09-08T07:44:56.604Z,101765.44
2023-09-08T07:47:24.305Z,101765.16
2023-09-08T07:49:51.975Z,101773.97
2023-09-08T07:52:19.695Z,101768.88
2023-09-08T07:54:47.406Z,101764.06
2023-09-08T07:57:15.126Z,101767.84
2023-09-08T07:59:42.845Z,101768.91
2023-09-08T08:02:11.988Z,101763.50
2023-09-08T08:04:39.939Z,101758.06
2023-09-08T08:07:07.711Z,101769.63
2023-09-08T08:09:35.561Z,101767.53
2023-09-08T08:12:03.346Z,101769.94
2023-09-08T08:14:31.138Z,101772.81
2023-09-08T08:16:58.937Z,101760.75
2023-09-08T08:19:27.741Z,101763.72
2023-09-08T08:21:57.443Z,101769.81
2023-09-08T08:24:25.361Z,101772.38
2023-09-08T08:26:53.108Z,101766.41
2023-09-08T08:29:20.928Z,101768.25
2023-09-08T08:31:48.745Z,101763.75
2023-09-08T08:34:16.443Z,101762.53
2023-09-08T08:36:44.146Z,101763.44
2023-09-08T08:39:12.027Z,101751.66
2023-09-08T08:41:41.864Z,101753.03
2023-09-08T08:44:09.978Z,101748.81
2023-09-08T08:46:41.297Z,101749.72
2023-09-08T08:49:11.729Z,101749.03
2023-09-08T08:51:40.495Z,101747.44
2023-09-08T08:54:08.230Z,101740.03
2023-09-08T08:56:37.817Z,101731.94
2023-09-08T08:59:06.469Z,101740.09
2023-09-08T09:01:34.532Z,101738.88
2023-09-08T09:04:05.599Z,101743.09
2023-09-08T09:06:33.746Z,101737.00
2023-09-08T09:09:02.094Z,101740.78
2023-09-08T09:11:29.923Z,101730.91
2023-09-08T09:13:57.834Z,101736.56
2023-09-08T09:16:25.940Z,101731.75
2023-09-08T09:19:01.034Z,101728.28
2023-09-08T09:21:51.784Z,101731.50
2023-09-08T09:24:32.579Z,101732.56
2023-09-08T09:27:02.200Z,101728.44
2023-09-08T09:29:30.497Z,101720.03
2023-09-08T09:32:07.668Z,101718.59
2023-09-08T09:34:36.191Z,101710.53
2023-09-08T09:37:06.349Z,101717.16
2023-09-08T09:39:34.173Z,101717.13
2023-09-08T09:42:04.024Z,101707.03
2023-09-08T09:44:32.141Z,101712.06
2023-09-08T09:47:02.164Z,101715.91
2023-09-08T09:49:33.132Z,101712.94
2023-09-08T09:52:01.095Z,101717.16
2023-09-08T09:54:30.332Z,101710.75
2023-09-08T09:56:58.153Z,101703.31
2023-09-08T09:59:26.213Z,101702.63
2023-09-08T10:01:55.007Z,101701.28
2023-09-08T10:04:23.496Z,101702.13
2023-09-08T10:06:53.661Z,101709.56
2023-09-08T10:09:21.550Z,101691.16
2023-09-08T10:11:50.599Z,101693.22
2023-09-08T10:14:20.026Z,101694.38
2023-09-08T10:16:53.509Z,101690.34
2023-09-08T10:19:22.876Z,101686.34
2023-09-08T10:21:55.685Z,101690.50
2023-09-08T10:24:27.642Z,101688.31
2023-09-08T10:27:12.719Z,101678.41
2023-09-08T10:29:40.843Z,101676.97
2023-09-08T10:32:10.833Z,101674.13
2023-09-08T10:34:40.004Z,101653.25
2023-09-08T10:37:26.721Z,101673.63
2023-09-08T10:39:55.263Z,101669.63
2023-09-08T10:42:27.144Z,101660.19
2023-09-08T10:45:03.343Z,101662.38
2023-09-08T10:47:48.667Z,101661.31
2023-09-08T10:50:34.136Z,101670.13
2023-09-08T10:53:16.366Z,101663.56
2023-09-08T10:56:10.813Z,101661.72
2023-09-08T10:58:43.680Z,101674.09
2023-09-08T11:01:18.781Z,101663.41
2023-09-08T11:03:51.069Z,101668.94
2023-09-08T11:06:24.837Z,101661.75
2023-09-08T11:08:54.460Z,101667.72
2023-09-08T11:11:22.319Z,101664.13
2023-09-08T11:13:50.258Z,101657.75
2023-09-08T11:16:22.811Z,101660.00
2023-09-08T11:18:52.487Z,101651.63
2023-09-08T11:21:20.299Z,101658.00
2023-09-08T11:23:48.699Z,101647.56
2023-09-08T11:26:17.853Z,101657.25
2023-09-08T11:28:48.271Z,101646.50
2023-09-08T11:31:17.199Z,101646.19
2023-09-08T11:33:45.038Z,101628.25
2023-09-08T11:36:18.103Z,101637.97
2023-09-08T11:38:46.536Z,101641.16
2023-09-08T11:41:14.644Z,101617.69
2023-09-08T11:43:42.592Z,101636.78
2023-09-08T11:46:11.861Z,101632.25
2023-09-08T11:48:40.866Z,101634.25
2023-09-08T11:51:09.968Z,101622.75
2023-09-08T11:53:38.733Z,101618.19
2023-09-08T11:56:06.955Z,101626.41
2023-09-08T11:58:35.772Z,101623.28
2023-09-08T12:01:05.140Z,101610.44
2023-09-08T12:03:33.083Z,101609.94
2023-09-08T12:06:03.202Z,101604.47
2023-09-08T12:08:31.838Z,101603.06
2023-09-08T12:10:59.737Z,101608.91
2023-09-08T12:13:27.541Z,101594.34
2023-09-08T12:15:55.303Z,101597.94
2023-09-08T12:18:40.433Z,101606.78
2023-09-08T12:21:08.800Z,101602.13
2023-09-08T12:23:51.940Z,101604.22
2023-09-08T12:26:20.486Z,101585.34
2023-09-08T12:28:49.410Z,101590.78
2023-09-08T12:31:19.863Z,101591.31
2023-09-08T12:33:47.845Z,101586.38
2023-09-08T12:36:19.470Z,101582.56
2023-09-08T12:38:54.089Z,101589.59
2023-09-08T12:41:22.067Z,101584.13
2023-09-08T12:43:50.313Z,101576.59
2023-09-08T12:46:19.719Z,101569.47
2023-09-08T12:48:47.809Z,101569.28
2023-09-08T12:51:15.601Z,101570.41
2023-09-08T12:53:43.332Z,101572.56
2023-09-08T12:56:11.391Z,101569.75
2023-09-08T12:58:39.294Z,101560.19
2023-09-08T13:01:09.679Z,101561.81
2023-09-08T13:03:38.513Z,101552.97
2023-09-08T13:06:06.409Z,101550.94
2023-09-08T13:08:34.526Z,101557.88
2023-09-08T13:11:02.571Z,101542.56
2023-09-08T13:13:30.575Z,101542.09
2023-09-08T13:15:58.382Z,101538.59
2023-09-08T13:18:26.209Z,101535.09
2023-09-08T13:20:53.961Z,101541.78
2023-09-08T13:23:23.139Z,101532.72
2023-09-08T13:25:51.017Z,101532.97
2023-09-08T13:28:19.749Z,101538.91
2023-09-08T13:30:47.665Z,101534.44
2023-09-08T13:33:16.191Z,101525.66
2023-09-08T13:35:43.884Z,101520.91
2023-09-08T13:38:11.607Z,101516.56
2023-09-08T13:40:39.768Z,101509.91
2023-09-08T13:43:07.764Z,101520.81
2023-09-08T13:45:37.102Z,101516.31
2023-09-08T13:48:07.598Z,101521.06
2023-09-08T13:50:37.697Z,101514.56
2023-09-08T13:53:06.114Z,101513.75
2023-09-08T13:55:38.510Z,101517.38
2023-09-08T13:58:09.276Z,101510.34
2023-09-08T14:00:44.627Z,101503.56
2023-09-08T14:03:15.101Z,101507.56
2023-09-08T14:05:46.233Z,101502.28
2023-09-08T14:08:18.134Z,101503.16
2023-09-08T14:10:57.468Z,101490.41
2023-09-08T14:13:32.424Z,101496.28
2023-09-08T14:16:02.534Z,101491.13
2023-09-08T14:18:31.660Z,101485.97
2023-09-08T14:20:59.402Z,101485.13
2023-09-08T14:23:27.295Z,101492.25
2023-09-08T14:25:55.012Z,101485.19
2023-09-08T14:28:22.864Z,101484.94
2023-09-08T14:30:52.161Z,101478.63
2023-09-08T14:33:20.927Z,101486.28
2023-09-08T14:35:52.543Z,101487.13
2023-09-08T14:38:20.551Z,101480.81
2023-09-08T14:40:59.125Z,101479.63
2023-09-08T14:43:28.686Z,101480.69
2023-09-08T14:46:00.689Z,101475.53
2023-09-08T14:48:28.688Z,101482.78
2023-09-08T14:50:58.407Z,101477.75
2023-09-08T14:53:26.431Z,101476.56
2023-09-08T14:55:58.590Z,101483.81
2023-09-08T14:58:32.724Z,101475.06
2023-09-08T15:01:08.342Z,101477.81
2023-09-08T15:03:36.983Z,101476.16
2023-09-08T15:06:05.068Z,101480.50
2023-09-08T15:08:35.020Z,101483.38
2023-09-08T15:11:03.151Z,101477.84
2023-09-08T15:13:31.100Z,101470.06
2023-09-08T15:16:00.745Z,101449.88
2023-09-08T15:18:28.775Z,101469.50
2023-09-08T15:20:57.668Z,101462.91
2023-09-08T15:23:25.582Z,101452.66
2023-09-08T15:25:58.345Z,101455.69
2023-09-08T15:28:26.590Z,101448.78
2023-09-08T15:30:56.042Z,101457.91
2023-09-08T15:33:28.008Z,101447.09
2023-09-08T15:35:56.102Z,101451.81
2023-09-08T15:38:24.023Z,101445.13
2023-09-08T15:41:11.330Z,101448.72
2023-09-08T15:43:44.790Z,101448.38
2023-09-08T15:46:12.580Z,101445.75
2023-09-08T15:48:40.456Z,101448.75
2023-09-08T15:51:10.745Z,101443.19
2023-09-08T15:53:39.459Z,101436.28
2023-09-08T15:56:09.238Z,101443.69
2023-09-08T15:58:37.695Z,101438.63
2023-09-08T16:01:08.466Z,101434.00
2023-09-08T16:03:37.328Z,101445.75
2023-09-08T16:06:05.634Z,101437.78
2023-09-08T16:08:33.487Z,101427.47
2023-09-08T16:11:02.665Z,101431.91
2023-09-08T16:13:34.334Z,101432.72
2023-09-08T16:16:02.439Z,101440.19
2023-09-08T16:18:32.636Z,101426.63
2023-09-08T16:21:00.622Z,101431.22
2023-09-08T16:23:29.074Z,101433.09
2023-09-08T16:25:57.940Z,101424.75
2023-09-08T16:28:25.909Z,101432.56
2023-09-08T16:30:53.783Z,101428.22
2023-09-08T16:33:21.630Z,101422.50
2023-09-08T16:35:49.582Z,101426.53
2023-09-08T16:38:17.277Z,101424.28
2023-09-08T16:40:46.129Z,101418.78
2023-09-08T16:43:17.008Z,101428.91
2023-09-08T16:45:45.553Z,101429.88
2023-09-08T16:48:14.691Z,101436.50
2023-09-08T16:50:42.948Z,101428.31
2023-09-08T16:53:10.839Z,101420.84
2023-09-08T16:55:38.640Z,101421.13
2023-09-08T16:58:06.423Z,101419.13
2023-09-08T17:00:35.053Z,101428.16
2023-09-08T17:03:02.940Z,101422.56
2023-09-08T17:05:30.806Z,101429.16
2023-09-08T17:07:58.576Z,101425.06
2023-09-08T17:10:26.423Z,101427.16
2023-09-08T17:12:54.164Z,101430.69
2023-09-08T17:15:22.285Z,101435.00
2023-09-08T17:17:50.053Z,101412.78
2023-09-08T17:20:18.238Z,101426.50
2023-09-08T17:22:46.266Z,101425.34
2023-09-08T17:25:14.138Z,101427.84
2023-09-08T17:27:44.585Z,101419.88
2023-09-08T17:30:13.010Z,101428.41
2023-09-08T17:32:40.776Z,101420.63
2023-09-08T17:35:09.300Z,101428.94
2023-09-08T17:37:37.983Z,101418.50
2023-09-08T17:40:07.412Z,101428.69
2023-09-08T17:42:35.180Z,101433.88
2023-09-08T17:45:05.135Z,101439.34
2023-09-08T17:47:32.827Z,101436.47
2023-09-08T17:50:00.615Z,101446.50
2023-09-08T17:52:28.334Z,101438.16
2023-09-08T17:54:57.705Z,101449.47
2023-09-08T17:57:25.632Z,101447.72
2023-09-08T17:59:53.377Z,101453.63
2023-09-08T18:02:21.128Z,101450.03
2023-09-08T18:04:49.071Z,101450.41
2023-09-08T18:07:16.936Z,101451.13
2023-09-08T18:09:45.626Z,101447.97
2023-09-08T18:12:13.514Z,101447.72
2023-09-08T18:14:41.369Z,101444.13
2023-09-08T18:17:10.467Z,101436.31
2023-09-08T18:19:38.505Z,101452.28
2023-09-08T18:22:06.498Z,101448.50
2023-09-08T18:24:37.242Z,101446.44
2023-09-08T18:27:05.513Z,101452.78
2023-09-08T18:29:34.049Z,101447.38
2023-09-08T18:32:02.182Z,101425.13
2023-09-08T18:34:30.301Z,101453.22
2023-09-08T18:37:02.960Z,101457.59
2023-09-08T18:39:33.893Z,101451.16
2023-09-08T18:42:06.561Z,101456.91
2023-09-08T18:44:42.824Z,101461.59
2023-09-08T18:47:15.064Z,101448.53
2023-09-08T18:49:43.184Z,101455.88
2023-09-08T18:52:13.219Z,101465.16
2023-09-08T18:54:41.365Z,101475.13
2023-09-08T18:57:09.615Z,101464.72
2023-09-08T18:59:38.320Z,101468.31
2023-09-08T19:02:06.977Z,101461.72
2023-09-08T19:04:34.845Z,101476.66
2023-09-08T19:07:02.910Z,101472.56
2023-09-08T19:09:30.612Z,101458.22
2023-09-08T19:11:58.862Z,101477.91
2023-09-08T19:14:28.931Z,101476.19
2023-09-08T19:16:58.766Z,101476.78
2023-09-08T19:19:26.790Z,101468.69
2023-09-08T19:21:54.539Z,101474.25
2023-09-08T19:24:25.299Z,101469.38
2023-09-08T19:26:53.126Z,101469.97
2023-09-08T19:29:21.174Z,101456.75
2023-09-08T19:31:49.120Z,101473.97
2023-09-08T19:34:18.285Z,101466.09
2023-09-08T19:36:50.798Z,101459.34
2023-09-08T19:39:18.584Z,101462.81
2023-09-08T19:41:46.341Z,101468.56
2023-09-08T19:44:14.124Z,101471.00
2023-09-08T19:46:41.971Z,101467.94
2023-09-08T19:49:09.795Z,101461.28
2023-09-08T19:51:39.919Z,101470.84
2023-09-08T19:54:07.693Z,101456.88
2023-09-08T19:56:35.498Z,101470.13
2023-09-08T19:59:03.538Z,101466.34
2023-09-08T20:01:31.779Z,101460.47
2023-09-08T20:03:59.681Z,101466.94
2023-09-08T20:06:27.494Z,101470.69
2023-09-08T20:08:55.462Z,101462.41
2023-09-08T20:11:23.198Z,101465.25
2023-09-08T20:13:52.206Z,101461.44
2023-09-08T20:16:20.139Z,101466.41
2023-09-08T20:18:48.651Z,101466.28
2023-09-08T20:21:16.482Z,101456.81
2023-09-08T20:23:44.590Z,101469.88
2023-09-08T20:26:12.640Z,101466.47
2023-09-08T20:28:40.861Z,101470.03
2023-09-08T20:31:16.350Z,101472.22
2023-09-08T20:33:46.193Z,101466.31
2023-09-08T20:36:15.107Z,101464.34
2023-09-08T20:38:43.853Z,101458.22
2023-09-08T20:41:13.451Z,101455.56
2023-09-08T20:43:41.854Z,101471.25
2023-09-08T20:46:09.942Z,101476.78
2023-09-08T20:48:39.950Z,101471.94
2023-09-08T20:51:13.014Z,101485.97
2023-09-08T20:53:43.069Z,101481.50
2023-09-08T20:56:11.759Z,101485.25
2023-09-08T20:58:41.864Z,101494.06
2023-09-08T21:01:11.591Z,101477.44
2023-09-08T21:03:40.308Z,101488.00
2023-09-08T21:06:10.871Z,101485.00
2023-09-08T21:08:38.652Z,101490.38
2023-09-08T21:11:06.660Z,101479.97
2023-09-08T21:13:34.954Z,101484.91
2023-09-08T21:16:03.332Z,101480.22
2023-09-08T21:18:31.993Z,101484.53
2023-09-08T21:20:59.965Z,101487.72
2023-09-08T21:23:29.381Z,101484.53
2023-09-08T21:25:57.359Z,101480.41
2023-09-08T21:28:25.287Z,101473.84
2023-09-08T21:31:05.174Z,101474.38
2023-09-08T21:33:33.184Z,101479.50
2023-09-08T21:36:01.223Z,101480.59
2023-09-08T21:38:29.234Z,101484.13
2023-09-08T21:40:57.080Z,101478.41
2023-09-08T21:43:27.271Z,101473.91
2023-09-08T21:46:10.426Z,101476.13
2023-09-08T21:48:39.621Z,101484.41
2023-09-08T21:51:10.288Z,101473.22
2023-09-08T21:53:38.292Z,101481.78
2023-09-08T21:56:06.173Z,101460.19
2023-09-08T21:58:34.053Z,101473.03
2023-09-08T22:01:02.130Z,101476.13
2023-09-08T22:03:32.905Z,101476.00
2023-09-08T22:06:00.944Z,101476.31
2023-09-08T22:08:28.694Z,101472.25
2023-09-08T22:11:04.190Z,101472.63
2023-09-08T22:13:34.127Z,101466.19
2023-09-08T22:16:07.666Z,101469.41
2023-09-08T22:18:35.774Z,101475.50
2023-09-08T22:21:05.073Z,101458.88
2023-09-08T22:23:34.305Z,101467.09
2023-09-08T22:26:03.320Z,101467.69
2023-09-08T22:28:31.005Z,101468.13
2023-09-08T22:30:58.787Z,101455.31
2023-09-08T22:33:26.831Z,101445.72
2023-09-08T22:35:54.652Z,101462.94
2023-09-08T22:38:22.525Z,101468.56
2023-09-08T22:40:50.236Z,101463.34
2023-09-08T22:43:17.933Z,101458.44
2023-09-08T22:45:45.773Z,101459.44
2023-09-08T22:48:19.064Z,101467.59
2023-09-08T22:50:50.789Z,101455.31
2023-09-08T22:53:19.075Z,101464.03
2023-09-08T22:55:46.996Z,101460.81
2023-09-08T22:58:18.000Z,101465.91
2023-09-08T23:00:45.800Z,101461.19
2023-09-08T23:03:13.750Z,101455.78
2023-09-08T23:05:41.503Z,101458.34
2023-09-08T23:08:09.274Z,101456.66
2023-09-08T23:10:37.172Z,101456.56
2023-09-08T23:13:04.952Z,101454.53
2023-09-08T23:15:34.592Z,101444.13
2023-09-08T23:18:02.342Z,101444.41
2023-09-08T23:20:30.093Z,101449.66
2023-09-08T23:22:59.159Z,101432.94
2023-09-08T23:25:27.216Z,101445.09
2023-09-08T23:27:55.112Z,101432.41
2023-09-08T23:30:23.237Z,101450.78
2023-09-08T23:32:50.970Z,101446.22
2023-09-08T23:35:18.938Z,101446.34
2023-09-08T23:37:46.816Z,101447.72
2023-09-08T23:40:14.541Z,101438.81
2023-09-08T23:42:42.287Z,101437.28
2023-09-08T23:45:10.573Z,101441.38
2023-09-08T23:47:39.697Z,101436.25
2023-09-08T23:50:08.884Z,101432.06
2023-09-08T23:52:36.914Z,101438.78
2023-09-08T23:55:04.983Z,101432.22
2023-09-08T23:57:32.938Z,101434.72
